sensor_id;sensor_type;location;lat;lon;timestamp;temperature;humidity
71837;DHT22;59686;51.716;7.016;2023-04-07T00:02:29;11.60;78.30
71837;DHT22;59686;51.716;7.016;2023-04-07T00:04:56;11.60;78.40
71837;DHT22;59686;51.716;7.016;2023-04-07T00:07:23;11.60;78.50
71837;DHT22;59686;51.716;7.016;2023-04-07T00:09:48;11.60;78.40
71837;DHT22;59686;51.716;7.016;2023-04-07T00:12:14;11.60;78.40
71837;DHT22;59686;51.716;7.016;2023-04-07T00:14:40;11.60;78.40
71837;DHT22;59686;51.716;7.016;2023-04-07T00:17:06;11.60;78.40
71837;DHT22;59686;51.716;7.016;2023-04-07T00:19:31;11.60;78.50
71837;DHT22;59686;51.716;7.016;2023-04-07T00:21:58;11.60;78.50
71837;DHT22;59686;51.716;7.016;2023-04-07T00:24:23;11.60;78.50
71837;DHT22;59686;51.716;7.016;2023-04-07T00:26:49;11.60;78.50
71837;DHT22;59686;51.716;7.016;2023-04-07T00:29:15;11.50;78.40
71837;DHT22;59686;51.716;7.016;2023-04-07T00:31:40;11.60;78.50
71837;DHT22;59686;51.716;7.016;2023-04-07T00:34:06;11.50;78.50
71837;DHT22;59686;51.716;7.016;2023-04-07T00:36:32;11.60;78.60
71837;DHT22;59686;51.716;7.016;2023-04-07T00:38:58;11.70;78.50
71837;DHT22;59686;51.716;7.016;2023-04-07T00:41:23;11.60;78.60
71837;DHT22;59686;51.716;7.016;2023-04-07T00:43:56;11.60;78.60
71837;DHT22;59686;51.716;7.016;2023-04-07T00:46:22;11.50;78.60
71837;DHT22;59686;51.716;7.016;2023-04-07T00:48:48;11.50;78.60
71837;DHT22;59686;51.716;7.016;2023-04-07T00:51:14;11.50;78.70
71837;DHT22;59686;51.716;7.016;2023-04-07T00:53:40;11.50;78.60
71837;DHT22;59686;51.716;7.016;2023-04-07T00:56:07;11.60;78.70
71837;DHT22;59686;51.716;7.016;2023-04-07T00:58:39;11.60;78.70
71837;DHT22;59686;51.716;7.016;2023-04-07T01:01:14;11.50;78.60
71837;DHT22;59686;51.716;7.016;2023-04-07T01:03:51;11.50;78.50
71837;DHT22;59686;51.716;7.016;2023-04-07T01:06:19;11.50;78.70
71837;DHT22;59686;51.716;7.016;2023-04-07T01:08:59;11.50;78.60
71837;DHT22;59686;51.716;7.016;2023-04-07T01:14:32;11.50;78.60
71837;DHT22;59686;51.716;7.016;2023-04-07T01:17:02;11.50;78.70
71837;DHT22;59686;51.716;7.016;2023-04-07T01:19:37;11.40;78.80
71837;DHT22;59686;51.716;7.016;2023-04-07T01:22:11;11.50;78.80
71837;DHT22;59686;51.716;7.016;2023-04-07T01:30:11;11.50;78.90
71837;DHT22;59686;51.716;7.016;2023-04-07T01:32:39;11.50;78.90
71837;DHT22;59686;51.716;7.016;2023-04-07T01:35:09;11.50;79.70
71837;DHT22;59686;51.716;7.016;2023-04-07T01:37:36;11.50;79.80
71837;DHT22;59686;51.716;7.016;2023-04-07T01:40:04;11.50;79.20
71837;DHT22;59686;51.716;7.016;2023-04-07T01:42:31;11.50;79.20
71837;DHT22;59686;51.716;7.016;2023-04-07T01:44:59;11.50;79.20
71837;DHT22;59686;51.716;7.016;2023-04-07T01:47:27;11.60;79.20
71837;DHT22;59686;51.716;7.016;2023-04-07T01:49:57;11.50;79.20
71837;DHT22;59686;51.716;7.016;2023-04-07T01:52:24;11.50;79.10
71837;DHT22;59686;51.716;7.016;2023-04-07T01:54:50;11.50;79.00
71837;DHT22;59686;51.716;7.016;2023-04-07T01:57:16;11.50;79.20
71837;DHT22;59686;51.716;7.016;2023-04-07T01:59:42;11.50;79.20
71837;DHT22;59686;51.716;7.016;2023-04-07T02:02:08;11.50;79.10
71837;DHT22;59686;51.716;7.016;2023-04-07T02:04:44;11.50;79.00
71837;DHT22;59686;51.716;7.016;2023-04-07T02:07:41;11.50;79.10
71837;DHT22;59686;51.716;7.016;2023-04-07T02:10:12;11.40;79.10
71837;DHT22;59686;51.716;7.016;2023-04-07T02:12:39;11.50;79.30
71837;DHT22;59686;51.716;7.016;2023-04-07T02:15:07;11.50;79.30
71837;DHT22;59686;51.716;7.016;2023-04-07T02:17:37;11.50;79.30
71837;DHT22;59686;51.716;7.016;2023-04-07T02:20:16;11.50;80.00
71837;DHT22;59686;51.716;7.016;2023-04-07T02:22:42;11.50;79.10
71837;DHT22;59686;51.716;7.016;2023-04-07T02:27:50;11.50;79.30
71837;DHT22;59686;51.716;7.016;2023-04-07T02:30:17;11.50;79.50
71837;DHT22;59686;51.716;7.016;2023-04-07T02:32:44;11.50;79.50
71837;DHT22;59686;51.716;7.016;2023-04-07T02:35:10;11.50;79.60
71837;DHT22;59686;51.716;7.016;2023-04-07T02:37:39;11.50;79.60
71837;DHT22;59686;51.716;7.016;2023-04-07T02:40:06;11.40;79.70
71837;DHT22;59686;51.716;7.016;2023-04-07T02:42:31;11.40;79.70
71837;DHT22;59686;51.716;7.016;2023-04-07T02:44:57;11.50;79.70
71837;DHT22;59686;51.716;7.016;2023-04-07T02:47:24;11.50;79.70
71837;DHT22;59686;51.716;7.016;2023-04-07T02:49:50;11.40;79.80
71837;DHT22;59686;51.716;7.016;2023-04-07T02:52:16;11.50;79.80
71837;DHT22;59686;51.716;7.016;2023-04-07T02:54:42;11.30;80.50
71837;DHT22;59686;51.716;7.016;2023-04-07T02:57:08;11.40;79.80
71837;DHT22;59686;51.716;7.016;2023-04-07T02:59:33;11.50;79.90
71837;DHT22;59686;51.716;7.016;2023-04-07T03:01:59;11.40;80.60
71837;DHT22;59686;51.716;7.016;2023-04-07T03:04:25;11.40;79.90
71837;DHT22;59686;51.716;7.016;2023-04-07T03:06:50;11.50;80.00
71837;DHT22;59686;51.716;7.016;2023-04-07T03:09:20;11.40;80.10
71837;DHT22;59686;51.716;7.016;2023-04-07T03:11:46;11.50;80.20
71837;DHT22;59686;51.716;7.016;2023-04-07T03:14:12;11.40;80.30
71837;DHT22;59686;51.716;7.016;2023-04-07T03:16:37;11.40;80.20
71837;DHT22;59686;51.716;7.016;2023-04-07T03:19:03;11.40;80.30
71837;DHT22;59686;51.716;7.016;2023-04-07T03:21:28;11.30;80.40
71837;DHT22;59686;51.716;7.016;2023-04-07T03:23:56;11.40;80.50
71837;DHT22;59686;51.716;7.016;2023-04-07T03:26:22;11.50;80.50
71837;DHT22;59686;51.716;7.016;2023-04-07T03:28:48;11.40;80.40
71837;DHT22;59686;51.716;7.016;2023-04-07T03:31:13;11.30;80.50
71837;DHT22;59686;51.716;7.016;2023-04-07T03:33:39;11.30;80.40
71837;DHT22;59686;51.716;7.016;2023-04-07T03:36:05;11.40;80.60
71837;DHT22;59686;51.716;7.016;2023-04-07T03:38:33;11.40;80.40
71837;DHT22;59686;51.716;7.016;2023-04-07T03:40:59;11.40;80.60
71837;DHT22;59686;51.716;7.016;2023-04-07T03:43:25;11.40;80.60
71837;DHT22;59686;51.716;7.016;2023-04-07T03:45:54;11.40;80.50
71837;DHT22;59686;51.716;7.016;2023-04-07T03:48:19;11.40;80.50
71837;DHT22;59686;51.716;7.016;2023-04-07T03:50:45;11.30;80.50
71837;DHT22;59686;51.716;7.016;2023-04-07T03:53:11;11.40;80.50
71837;DHT22;59686;51.716;7.016;2023-04-07T03:55:39;11.30;80.60
71837;DHT22;59686;51.716;7.016;2023-04-07T03:58:09;11.30;80.70
71837;DHT22;59686;51.716;7.016;2023-04-07T04:00:35;11.30;80.70
71837;DHT22;59686;51.716;7.016;2023-04-07T04:03:01;11.30;80.90
71837;DHT22;59686;51.716;7.016;2023-04-07T04:05:27;11.40;81.00
71837;DHT22;59686;51.716;7.016;2023-04-07T04:07:59;11.40;81.00
71837;DHT22;59686;51.716;7.016;2023-04-07T04:10:25;11.50;81.00
71837;DHT22;59686;51.716;7.016;2023-04-07T04:12:51;11.40;81.00
71837;DHT22;59686;51.716;7.016;2023-04-07T04:15:17;11.30;80.70
71837;DHT22;59686;51.716;7.016;2023-04-07T04:17:42;11.50;81.00
71837;DHT22;59686;51.716;7.016;2023-04-07T04:20:08;11.40;81.00
71837;DHT22;59686;51.716;7.016;2023-04-07T04:22:34;11.40;81.10
71837;DHT22;59686;51.716;7.016;2023-04-07T04:25:00;11.40;81.10
71837;DHT22;59686;51.716;7.016;2023-04-07T04:27:27;11.40;81.00
71837;DHT22;59686;51.716;7.016;2023-04-07T04:29:52;11.40;81.20
71837;DHT22;59686;51.716;7.016;2023-04-07T04:32:18;11.40;81.20
71837;DHT22;59686;51.716;7.016;2023-04-07T04:34:44;11.30;81.20
71837;DHT22;59686;51.716;7.016;2023-04-07T04:37:10;11.30;81.20
71837;DHT22;59686;51.716;7.016;2023-04-07T04:39:36;11.40;81.30
71837;DHT22;59686;51.716;7.016;2023-04-07T04:42:02;11.30;81.20
71837;DHT22;59686;51.716;7.016;2023-04-07T04:44:28;11.30;81.20
71837;DHT22;59686;51.716;7.016;2023-04-07T04:46:55;11.30;81.20
71837;DHT22;59686;51.716;7.016;2023-04-07T04:49:21;11.30;81.20
71837;DHT22;59686;51.716;7.016;2023-04-07T04:51:46;11.40;81.40
71837;DHT22;59686;51.716;7.016;2023-04-07T04:54:12;11.20;81.00
71837;DHT22;59686;51.716;7.016;2023-04-07T04:56:38;11.30;81.00
71837;DHT22;59686;51.716;7.016;2023-04-07T04:59:07;11.30;81.10
71837;DHT22;59686;51.716;7.016;2023-04-07T05:01:32;11.20;81.30
71837;DHT22;59686;51.716;7.016;2023-04-07T05:03:58;11.40;81.50
71837;DHT22;59686;51.716;7.016;2023-04-07T05:06:24;11.40;81.50
71837;DHT22;59686;51.716;7.016;2023-04-07T05:08:49;11.30;81.30
71837;DHT22;59686;51.716;7.016;2023-04-07T05:11:15;11.30;81.40
71837;DHT22;59686;51.716;7.016;2023-04-07T05:13:41;11.30;81.40
71837;DHT22;59686;51.716;7.016;2023-04-07T05:16:07;11.30;81.40
71837;DHT22;59686;51.716;7.016;2023-04-07T05:18:35;11.30;81.60
71837;DHT22;59686;51.716;7.016;2023-04-07T05:21:01;11.30;81.50
71837;DHT22;59686;51.716;7.016;2023-04-07T05:23:27;11.30;81.60
71837;DHT22;59686;51.716;7.016;2023-04-07T05:25:52;11.30;81.70
71837;DHT22;59686;51.716;7.016;2023-04-07T05:28:18;11.30;81.70
71837;DHT22;59686;51.716;7.016;2023-04-07T05:30:44;11.30;81.80
71837;DHT22;59686;51.716;7.016;2023-04-07T05:33:10;11.30;82.40
71837;DHT22;59686;51.716;7.016;2023-04-07T05:35:36;11.30;81.80
71837;DHT22;59686;51.716;7.016;2023-04-07T05:38:07;11.40;81.90
71837;DHT22;59686;51.716;7.016;2023-04-07T05:40:32;11.30;81.80
71837;DHT22;59686;51.716;7.016;2023-04-07T05:42:59;11.20;81.70
71837;DHT22;59686;51.716;7.016;2023-04-07T05:45:25;11.30;81.70
71837;DHT22;59686;51.716;7.016;2023-04-07T05:47:50;11.30;81.90
71837;DHT22;59686;51.716;7.016;2023-04-07T05:50:17;11.30;81.90
71837;DHT22;59686;51.716;7.016;2023-04-07T05:52:42;11.30;82.00
71837;DHT22;59686;51.716;7.016;2023-04-07T05:55:08;11.40;82.20
71837;DHT22;59686;51.716;7.016;2023-04-07T05:57:34;11.30;82.00
71837;DHT22;59686;51.716;7.016;2023-04-07T06:00:00;11.30;82.10
71837;DHT22;59686;51.716;7.016;2023-04-07T06:02:34;11.30;82.20
71837;DHT22;59686;51.716;7.016;2023-04-07T06:05:00;11.30;83.20
71837;DHT22;59686;51.716;7.016;2023-04-07T06:07:25;11.30;82.40
71837;DHT22;59686;51.716;7.016;2023-04-07T06:09:51;11.30;82.50
71837;DHT22;59686;51.716;7.016;2023-04-07T06:12:17;11.30;82.50
71837;DHT22;59686;51.716;7.016;2023-04-07T06:14:50;11.40;82.30
71837;DHT22;59686;51.716;7.016;2023-04-07T06:17:15;11.30;82.40
71837;DHT22;59686;51.716;7.016;2023-04-07T06:19:41;11.30;82.40
71837;DHT22;59686;51.716;7.016;2023-04-07T06:22:07;11.20;82.50
71837;DHT22;59686;51.716;7.016;2023-04-07T06:24:32;11.30;82.70
71837;DHT22;59686;51.716;7.016;2023-04-07T06:27:13;11.30;82.80
71837;DHT22;59686;51.716;7.016;2023-04-07T06:29:39;11.30;83.30
71837;DHT22;59686;51.716;7.016;2023-04-07T06:32:05;11.30;82.80
71837;DHT22;59686;51.716;7.016;2023-04-07T06:34:31;11.30;82.90
71837;DHT22;59686;51.716;7.016;2023-04-07T06:36:57;11.30;83.00
71837;DHT22;59686;51.716;7.016;2023-04-07T06:39:25;11.40;82.90
71837;DHT22;59686;51.716;7.016;2023-04-07T06:41:51;11.20;82.80
71837;DHT22;59686;51.716;7.016;2023-04-07T06:44:19;11.20;83.00
71837;DHT22;59686;51.716;7.016;2023-04-07T06:46:44;11.20;82.80
71837;DHT22;59686;51.716;7.016;2023-04-07T06:49:13;11.30;83.10
71837;DHT22;59686;51.716;7.016;2023-04-07T06:51:40;11.20;83.60
71837;DHT22;59686;51.716;7.016;2023-04-07T06:54:06;11.10;87.70
71837;DHT22;59686;51.716;7.016;2023-04-07T06:56:37;11.00;89.60
71837;DHT22;59686;51.716;7.016;2023-04-07T06:59:03;11.00;89.90
71837;DHT22;59686;51.716;7.016;2023-04-07T07:01:29;11.00;89.40
71837;DHT22;59686;51.716;7.016;2023-04-07T07:03:55;11.00;88.90
71837;DHT22;59686;51.716;7.016;2023-04-07T07:06:21;11.10;88.60
71837;DHT22;59686;51.716;7.016;2023-04-07T07:08:46;11.10;88.60
71837;DHT22;59686;51.716;7.016;2023-04-07T07:11:12;11.10;88.80
71837;DHT22;59686;51.716;7.016;2023-04-07T07:13:37;11.20;88.10
71837;DHT22;59686;51.716;7.016;2023-04-07T07:16:03;11.10;87.50
71837;DHT22;59686;51.716;7.016;2023-04-07T07:18:29;11.20;87.60
71837;DHT22;59686;51.716;7.016;2023-04-07T07:20:59;11.10;87.50
71837;DHT22;59686;51.716;7.016;2023-04-07T07:23:25;11.10;87.30
71837;DHT22;59686;51.716;7.016;2023-04-07T07:25:51;11.20;87.30
71837;DHT22;59686;51.716;7.016;2023-04-07T07:28:16;11.20;87.10
71837;DHT22;59686;51.716;7.016;2023-04-07T07:30:42;11.20;86.90
71837;DHT22;59686;51.716;7.016;2023-04-07T07:33:09;11.20;86.80
71837;DHT22;59686;51.716;7.016;2023-04-07T07:35:35;11.20;86.90
71837;DHT22;59686;51.716;7.016;2023-04-07T07:38:02;11.10;86.60
71837;DHT22;59686;51.716;7.016;2023-04-07T07:40:30;11.20;86.60
71837;DHT22;59686;51.716;7.016;2023-04-07T07:42:56;11.20;86.50
71837;DHT22;59686;51.716;7.016;2023-04-07T07:45:21;11.20;86.70
71837;DHT22;59686;51.716;7.016;2023-04-07T07:47:47;11.20;86.60
71837;DHT22;59686;51.716;7.016;2023-04-07T07:50:13;11.20;86.70
71837;DHT22;59686;51.716;7.016;2023-04-07T07:52:39;11.40;86.60
71837;DHT22;59686;51.716;7.016;2023-04-07T07:55:05;11.30;86.30
71837;DHT22;59686;51.716;7.016;2023-04-07T07:57:30;11.20;86.20
71837;DHT22;59686;51.716;7.016;2023-04-07T07:59:57;11.20;86.20
71837;DHT22;59686;51.716;7.016;2023-04-07T08:02:22;11.20;86.10
71837;DHT22;59686;51.716;7.016;2023-04-07T08:04:54;11.30;86.10
71837;DHT22;59686;51.716;7.016;2023-04-07T08:07:19;11.20;86.10
71837;DHT22;59686;51.716;7.016;2023-04-07T08:09:46;11.20;86.20
71837;DHT22;59686;51.716;7.016;2023-04-07T08:12:13;11.20;86.10
71837;DHT22;59686;51.716;7.016;2023-04-07T08:14:38;11.40;86.20
71837;DHT22;59686;51.716;7.016;2023-04-07T08:17:04;11.20;85.80
71837;DHT22;59686;51.716;7.016;2023-04-07T08:19:32;11.30;85.80
71837;DHT22;59686;51.716;7.016;2023-04-07T08:21:57;11.30;86.30
71837;DHT22;59686;51.716;7.016;2023-04-07T08:24:23;11.30;85.60
71837;DHT22;59686;51.716;7.016;2023-04-07T08:26:50;11.40;85.50
71837;DHT22;59686;51.716;7.016;2023-04-07T08:29:15;11.30;85.30
71837;DHT22;59686;51.716;7.016;2023-04-07T08:31:56;11.40;85.30
71837;DHT22;59686;51.716;7.016;2023-04-07T08:34:22;11.30;85.60
71837;DHT22;59686;51.716;7.016;2023-04-07T08:36:48;11.30;85.60
71837;DHT22;59686;51.716;7.016;2023-04-07T08:39:14;11.30;86.00
71837;DHT22;59686;51.716;7.016;2023-04-07T08:41:40;11.30;86.00
71837;DHT22;59686;51.716;7.016;2023-04-07T08:44:07;11.20;87.20
71837;DHT22;59686;51.716;7.016;2023-04-07T08:46:34;11.30;87.00
71837;DHT22;59686;51.716;7.016;2023-04-07T08:49:01;11.30;86.80
71837;DHT22;59686;51.716;7.016;2023-04-07T08:51:28;11.30;86.90
71837;DHT22;59686;51.716;7.016;2023-04-07T08:56:31;11.30;87.30
71837;DHT22;59686;51.716;7.016;2023-04-07T08:59:00;11.30;86.50
71837;DHT22;59686;51.716;7.016;2023-04-07T09:01:27;11.30;86.40
71837;DHT22;59686;51.716;7.016;2023-04-07T09:03:56;11.30;85.90
71837;DHT22;59686;51.716;7.016;2023-04-07T09:06:23;11.30;86.10
71837;DHT22;59686;51.716;7.016;2023-04-07T09:08:48;11.20;85.40
71837;DHT22;59686;51.716;7.016;2023-04-07T09:11:14;11.30;86.30
71837;DHT22;59686;51.716;7.016;2023-04-07T09:13:40;11.30;86.00
71837;DHT22;59686;51.716;7.016;2023-04-07T09:16:06;11.20;86.10
71837;DHT22;59686;51.716;7.016;2023-04-07T09:18:32;11.20;86.60
71837;DHT22;59686;51.716;7.016;2023-04-07T09:21:00;11.40;86.00
71837;DHT22;59686;51.716;7.016;2023-04-07T09:23:34;11.40;86.70
71837;DHT22;59686;51.716;7.016;2023-04-07T09:26:25;11.40;85.80
71837;DHT22;59686;51.716;7.016;2023-04-07T09:28:54;11.40;85.20
71837;DHT22;59686;51.716;7.016;2023-04-07T09:31:46;11.30;85.00
71837;DHT22;59686;51.716;7.016;2023-04-07T09:34:26;11.40;85.40
71837;DHT22;59686;51.716;7.016;2023-04-07T09:36:53;11.40;85.00
71837;DHT22;59686;51.716;7.016;2023-04-07T09:39:19;11.50;85.90
71837;DHT22;59686;51.716;7.016;2023-04-07T09:41:45;11.30;86.10
71837;DHT22;59686;51.716;7.016;2023-04-07T09:44:11;11.40;85.70
71837;DHT22;59686;51.716;7.016;2023-04-07T09:46:57;11.30;85.10
71837;DHT22;59686;51.716;7.016;2023-04-07T09:49:24;11.50;86.10
71837;DHT22;59686;51.716;7.016;2023-04-07T09:52:02;11.40;86.20
71837;DHT22;59686;51.716;7.016;2023-04-07T09:54:39;11.40;86.30
71837;DHT22;59686;51.716;7.016;2023-04-07T09:57:06;11.30;85.60
71837;DHT22;59686;51.716;7.016;2023-04-07T09:59:34;11.40;86.10
71837;DHT22;59686;51.716;7.016;2023-04-07T10:02:00;11.50;84.80
71837;DHT22;59686;51.716;7.016;2023-04-07T10:04:28;11.40;84.40
71837;DHT22;59686;51.716;7.016;2023-04-07T10:06:55;11.40;84.50
71837;DHT22;59686;51.716;7.016;2023-04-07T10:09:30;11.50;84.00
71837;DHT22;59686;51.716;7.016;2023-04-07T10:11:57;11.40;84.00
71837;DHT22;59686;51.716;7.016;2023-04-07T10:14:29;11.40;84.30
71837;DHT22;59686;51.716;7.016;2023-04-07T10:16:56;11.40;84.10
71837;DHT22;59686;51.716;7.016;2023-04-07T10:19:23;11.50;84.40
71837;DHT22;59686;51.716;7.016;2023-04-07T10:21:51;11.40;84.30
71837;DHT22;59686;51.716;7.016;2023-04-07T10:27:11;11.40;85.20
71837;DHT22;59686;51.716;7.016;2023-04-07T10:29:41;11.50;86.10
71837;DHT22;59686;51.716;7.016;2023-04-07T10:32:08;11.40;85.80
71837;DHT22;59686;51.716;7.016;2023-04-07T10:37:16;11.50;85.00
71837;DHT22;59686;51.716;7.016;2023-04-07T10:39:45;11.40;85.00
71837;DHT22;59686;51.716;7.016;2023-04-07T10:45:02;11.40;84.20
71837;DHT22;59686;51.716;7.016;2023-04-07T10:47:28;11.50;84.00
71837;DHT22;59686;51.716;7.016;2023-04-07T10:50:18;11.50;83.80
71837;DHT22;59686;51.716;7.016;2023-04-07T10:52:48;11.50;83.40
71837;DHT22;59686;51.716;7.016;2023-04-07T11:03:26;11.50;83.40
71837;DHT22;59686;51.716;7.016;2023-04-07T11:06:01;11.50;83.30
71837;DHT22;59686;51.716;7.016;2023-04-07T11:08:37;11.50;83.70
71837;DHT22;59686;51.716;7.016;2023-04-07T11:11:04;11.50;83.60
71837;DHT22;59686;51.716;7.016;2023-04-07T11:13:40;11.50;83.30
71837;DHT22;59686;51.716;7.016;2023-04-07T11:16:06;11.50;83.40
71837;DHT22;59686;51.716;7.016;2023-04-07T11:18:33;11.50;83.20
71837;DHT22;59686;51.716;7.016;2023-04-07T11:20:59;11.60;83.00
71837;DHT22;59686;51.716;7.016;2023-04-07T11:23:25;11.60;83.40
71837;DHT22;59686;51.716;7.016;2023-04-07T11:26:02;11.60;83.40
71837;DHT22;59686;51.716;7.016;2023-04-07T11:28:28;11.60;83.30
71837;DHT22;59686;51.716;7.016;2023-04-07T11:30:55;11.60;83.60
71837;DHT22;59686;51.716;7.016;2023-04-07T11:33:30;11.60;83.30
71837;DHT22;59686;51.716;7.016;2023-04-07T11:36:01;11.60;83.00
71837;DHT22;59686;51.716;7.016;2023-04-07T11:38:30;11.50;83.00
71837;DHT22;59686;51.716;7.016;2023-04-07T11:41:12;11.60;83.30
71837;DHT22;59686;51.716;7.016;2023-04-07T11:43:38;11.60;83.10
71837;DHT22;59686;51.716;7.016;2023-04-07T11:46:14;11.60;83.40
71837;DHT22;59686;51.716;7.016;2023-04-07T11:48:42;11.60;83.40
71837;DHT22;59686;51.716;7.016;2023-04-07T11:51:19;11.60;83.20
71837;DHT22;59686;51.716;7.016;2023-04-07T11:53:45;11.60;83.40
71837;DHT22;59686;51.716;7.016;2023-04-07T11:56:14;11.60;83.10
71837;DHT22;59686;51.716;7.016;2023-04-07T12:01:13;11.60;83.00
71837;DHT22;59686;51.716;7.016;2023-04-07T12:04:02;11.60;83.10
71837;DHT22;59686;51.716;7.016;2023-04-07T12:06:33;11.60;83.40
71837;DHT22;59686;51.716;7.016;2023-04-07T12:09:03;11.60;84.30
71837;DHT22;59686;51.716;7.016;2023-04-07T12:11:29;11.60;83.00
71837;DHT22;59686;51.716;7.016;2023-04-07T12:13:56;11.70;83.30
71837;DHT22;59686;51.716;7.016;2023-04-07T12:16:22;11.60;83.30
71837;DHT22;59686;51.716;7.016;2023-04-07T12:18:49;11.60;83.10
71837;DHT22;59686;51.716;7.016;2023-04-07T12:21:18;11.80;83.30
71837;DHT22;59686;51.716;7.016;2023-04-07T12:23:45;11.60;83.00
71837;DHT22;59686;51.716;7.016;2023-04-07T12:26:12;11.70;83.50
71837;DHT22;59686;51.716;7.016;2023-04-07T12:28:38;11.60;83.60
71837;DHT22;59686;51.716;7.016;2023-04-07T12:31:03;11.60;83.40
71837;DHT22;59686;51.716;7.016;2023-04-07T12:33:30;11.70;83.50
71837;DHT22;59686;51.716;7.016;2023-04-07T12:35:56;11.70;84.20
71837;DHT22;59686;51.716;7.016;2023-04-07T12:38:22;11.70;83.20
71837;DHT22;59686;51.716;7.016;2023-04-07T12:40:48;11.80;83.30
71837;DHT22;59686;51.716;7.016;2023-04-07T12:43:14;11.70;83.40
71837;DHT22;59686;51.716;7.016;2023-04-07T12:45:40;11.70;83.10
71837;DHT22;59686;51.716;7.016;2023-04-07T12:48:06;11.70;83.20
71837;DHT22;59686;51.716;7.016;2023-04-07T12:50:31;11.70;83.20
71837;DHT22;59686;51.716;7.016;2023-04-07T12:52:57;11.70;83.10
71837;DHT22;59686;51.716;7.016;2023-04-07T12:55:24;11.60;83.10
71837;DHT22;59686;51.716;7.016;2023-04-07T12:57:50;11.70;83.10
71837;DHT22;59686;51.716;7.016;2023-04-07T13:00:16;11.70;83.10
71837;DHT22;59686;51.716;7.016;2023-04-07T13:02:42;11.70;83.20
71837;DHT22;59686;51.716;7.016;2023-04-07T13:05:08;11.70;83.10
71837;DHT22;59686;51.716;7.016;2023-04-07T13:07:34;11.70;83.00
71837;DHT22;59686;51.716;7.016;2023-04-07T13:10:01;11.70;83.10
71837;DHT22;59686;51.716;7.016;2023-04-07T13:12:27;11.70;83.10
71837;DHT22;59686;51.716;7.016;2023-04-07T13:14:53;11.70;83.20
71837;DHT22;59686;51.716;7.016;2023-04-07T13:17:18;11.60;83.20
71837;DHT22;59686;51.716;7.016;2023-04-07T13:19:44;11.70;83.00
71837;DHT22;59686;51.716;7.016;2023-04-07T13:22:12;11.60;83.10
71837;DHT22;59686;51.716;7.016;2023-04-07T13:24:38;11.60;83.20
71837;DHT22;59686;51.716;7.016;2023-04-07T13:27:04;11.70;83.30
71837;DHT22;59686;51.716;7.016;2023-04-07T13:29:31;11.80;83.30
71837;DHT22;59686;51.716;7.016;2023-04-07T13:32:09;11.70;83.50
71837;DHT22;59686;51.716;7.016;2023-04-07T13:34:38;11.70;83.20
71837;DHT22;59686;51.716;7.016;2023-04-07T13:37:04;11.70;83.00
71837;DHT22;59686;51.716;7.016;2023-04-07T13:39:31;11.60;83.30
71837;DHT22;59686;51.716;7.016;2023-04-07T13:41:58;11.70;83.70
71837;DHT22;59686;51.716;7.016;2023-04-07T13:44:27;11.80;83.60
71837;DHT22;59686;51.716;7.016;2023-04-07T13:46:54;11.70;83.50
71837;DHT22;59686;51.716;7.016;2023-04-07T13:49:20;11.70;83.30
71837;DHT22;59686;51.716;7.016;2023-04-07T13:51:47;11.70;83.10
71837;DHT22;59686;51.716;7.016;2023-04-07T13:54:13;11.80;83.30
71837;DHT22;59686;51.716;7.016;2023-04-07T13:56:38;11.70;83.30
71837;DHT22;59686;51.716;7.016;2023-04-07T13:59:06;11.70;83.10
71837;DHT22;59686;51.716;7.016;2023-04-07T14:01:33;11.80;83.60
71837;DHT22;59686;51.716;7.016;2023-04-07T14:04:00;11.80;83.30
71837;DHT22;59686;51.716;7.016;2023-04-07T14:06:27;11.70;83.00
71837;DHT22;59686;51.716;7.016;2023-04-07T14:08:53;11.80;83.00
71837;DHT22;59686;51.716;7.016;2023-04-07T14:11:19;11.80;83.00
71837;DHT22;59686;51.716;7.016;2023-04-07T14:13:49;11.80;83.10
71837;DHT22;59686;51.716;7.016;2023-04-07T14:16:22;11.80;83.00
71837;DHT22;59686;51.716;7.016;2023-04-07T14:18:47;11.80;83.20
71837;DHT22;59686;51.716;7.016;2023-04-07T14:21:13;11.80;83.00
71837;DHT22;59686;51.716;7.016;2023-04-07T14:23:40;11.80;83.10
71837;DHT22;59686;51.716;7.016;2023-04-07T14:26:10;11.80;83.00
71837;DHT22;59686;51.716;7.016;2023-04-07T14:28:36;11.70;83.20
71837;DHT22;59686;51.716;7.016;2023-04-07T14:31:02;11.80;83.00
71837;DHT22;59686;51.716;7.016;2023-04-07T14:33:28;11.80;83.10
71837;DHT22;59686;51.716;7.016;2023-04-07T14:35:55;11.80;83.70
71837;DHT22;59686;51.716;7.016;2023-04-07T14:38:20;11.80;83.00
71837;DHT22;59686;51.716;7.016;2023-04-07T14:40:49;11.80;83.00
71837;DHT22;59686;51.716;7.016;2023-04-07T14:43:14;11.80;83.10
71837;DHT22;59686;51.716;7.016;2023-04-07T14:45:40;11.90;83.50
71837;DHT22;59686;51.716;7.016;2023-04-07T14:48:06;11.70;82.80
71837;DHT22;59686;51.716;7.016;2023-04-07T14:50:32;11.80;82.90
71837;DHT22;59686;51.716;7.016;2023-04-07T14:52:58;11.80;83.00
71837;DHT22;59686;51.716;7.016;2023-04-07T14:55:24;11.80;83.70
71837;DHT22;59686;51.716;7.016;2023-04-07T14:57:50;11.80;83.10
71837;DHT22;59686;51.716;7.016;2023-04-07T15:00:16;11.80;82.90
71837;DHT22;59686;51.716;7.016;2023-04-07T15:02:42;11.80;82.90
71837;DHT22;59686;51.716;7.016;2023-04-07T15:05:08;11.80;83.20
71837;DHT22;59686;51.716;7.016;2023-04-07T15:07:33;11.80;82.90
71837;DHT22;59686;51.716;7.016;2023-04-07T15:09:59;11.80;83.00
71837;DHT22;59686;51.716;7.016;2023-04-07T15:12:26;11.80;82.80
71837;DHT22;59686;51.716;7.016;2023-04-07T15:14:53;11.80;83.40
71837;DHT22;59686;51.716;7.016;2023-04-07T15:17:18;11.80;83.20
71837;DHT22;59686;51.716;7.016;2023-04-07T15:19:46;11.80;83.60
71837;DHT22;59686;51.716;7.016;2023-04-07T15:22:12;11.80;83.40
71837;DHT22;59686;51.716;7.016;2023-04-07T15:24:37;11.80;83.30
71837;DHT22;59686;51.716;7.016;2023-04-07T15:27:03;11.90;83.20
71837;DHT22;59686;51.716;7.016;2023-04-07T15:29:29;11.70;83.10
71837;DHT22;59686;51.716;7.016;2023-04-07T15:31:54;11.80;83.20
71837;DHT22;59686;51.716;7.016;2023-04-07T15:34:20;11.80;83.00
71837;DHT22;59686;51.716;7.016;2023-04-07T15:36:46;11.90;83.60
71837;DHT22;59686;51.716;7.016;2023-04-07T15:39:11;11.80;83.80
71837;DHT22;59686;51.716;7.016;2023-04-07T15:41:37;11.80;83.80
71837;DHT22;59686;51.716;7.016;2023-04-07T15:44:03;11.70;83.80
71837;DHT22;59686;51.716;7.016;2023-04-07T15:46:29;11.80;83.90
71837;DHT22;59686;51.716;7.016;2023-04-07T15:48:56;11.80;84.80
71837;DHT22;59686;51.716;7.016;2023-04-07T15:51:22;11.80;83.20
71837;DHT22;59686;51.716;7.016;2023-04-07T15:53:48;11.80;84.30
71837;DHT22;59686;51.716;7.016;2023-04-07T15:56:13;11.90;84.50
71837;DHT22;59686;51.716;7.016;2023-04-07T15:58:39;12.00;84.50
71837;DHT22;59686;51.716;7.016;2023-04-07T16:01:05;11.90;84.40
71837;DHT22;59686;51.716;7.016;2023-04-07T16:03:30;11.90;84.40
71837;DHT22;59686;51.716;7.016;2023-04-07T16:05:57;11.90;84.40